Alaska Railroad Corporation
Mile 43 Hourly Weather Roundup
MILE_43 4/29/2017
CLICK HERE TO SEE GRAPH!!!

        DATE  TIME  Temp   Rel  Wind  Wind  Wind  Wind  WindPeakDi
                      F Humid   Spd   Dir  Gust   Spd  Gust      
                     AVG     %   RMY   RMY   RMY    PT    PT      

   4/29/2017 16:00    28    74    12   350    15    12    14      
   4/29/2017 15:00    27    74    11   352    13    10    13      
   4/29/2017 14:00    26    80    13   358    17    13    17      
   4/29/2017 13:00    26    85    12   360    16    12    16      
   4/29/2017 12:00    25    90     9     1    13    10    14      
   4/29/2017 11:00    25    92    10    18    15    11    18      
   4/29/2017 10:00    25    95    12     8    17    13    18      
   4/29/2017 09:00    25    95    12    30    17    14    21      
   4/29/2017 08:00    24    95    12    21    17    14    20      
   4/29/2017 07:00    24    96    10    16    17    12    20      
   4/29/2017 06:00    25    96    13    25    18    14    20      
   4/29/2017 05:00    25    96    10    14    16    11    21      
   4/29/2017 04:00    25    96     7     5    11     8    13      
   4/29/2017 03:00    25    97     7     8    11     7    11      
   4/29/2017 02:00    25    95     7    46    11     8    13      
   4/29/2017 01:00    25    96     7    46    15     8    14      
   4/28/2017 24:00    26    95     8    35    16     9    16      
   4/28/2017 23:00    26    94     4    55    11     5    13      
   4/28/2017 22:00    26    96     6    31    13     7    14      
   4/28/2017 21:00    27    90     6    81    13     7    14      
   4/28/2017 20:00    27    88     4    90     9     4    10      
   4/28/2017 19:00    29    81     6   120    14     8    17      
   4/28/2017 18:00    29    84     6    55    14     7    16      
   4/28/2017 17:00    29    81     9    88    19    11    21      


CLICK HERE TO SEE GRAPH!!!